< < Back
Terminal Aerodrome Forecast


Current Version              Previous Versions:   1  2  3  4  5  6  7  8  9  

Terminal Aerodrome Forecast

836
FTUS44 KOHX 301100
TAFBNA
TAF
KBNA 301120Z 3012/3112 19010KT P6SM SCT060 SCT070 SCT110
     FM301500 19015G25KT P6SM BKN050 BKN120
      TEMPO 3020/3024 2SM TSRA OVC030CB
     FM310100 21007KT P6SM BKN150
     FM310900 26005KT 3SM BR VCSH BKN010 OVC020=



Latest METAR

882
SAUS70 KWBC 301200 RRF
MTRBNA
METAR KBNA 301153Z 17009KT 10SM SCT180 22/18 A3009 RMK AO2 SLP182 70003
T02170183 10228 20200 53001


USA.gov is the U.S. government's official web portal to all federal, state and local government web resources and services.